Terminal Aerodrome Forecast
Issued by NWS Mt. Holly, NJ

Home | Current Version | Previous Version | Text Only | Print | Product List | Glossary On
Versions: 1 2 3 4 5 6 7 8 9 10 11 12 13 14 15 16 17 18
075
FTUS41 KPHI 190539
TAFILG
TAF
KILG 190539Z 1906/2006 VRB03KT P6SM BKN006
      TEMPO 1906/1908 SCT006
     FM190800 28004KT 4SM BR BKN025
     FM191100 32006KT P6SM SCT025
     FM191400 30008KT P6SM FEW040
     FM191800 27008KT P6SM SCT050
     FM200100 VRB03KT P6SM FEW150=

USA.gov is the U.S. government's official web portal to all federal, state and local government web resources and services.